• Join FlightAware (Why Join?)
  • Login
  • US Flag 
03:14PM EDT


 

Airport Tracker/Info


-or-


 

Live Flight TrackerFlight Track Log ✈ AAL1441 ✈ 24-Jul-2013 ✈ KDFW - KSFO

Flight Track Log - Related Links

Times and Time Zones

All times are in EDT time to prevent confusion due to time zone crossing. See the AAL1441 flight status page for this flight to view local times or setup timezone preferences in your user account.

Time Position Orientation Groundspeed Altitude Reporting Facility
EDT Latitude Longitude Course Direction KTS MPH feet Rate Location/Type
02:27PM 32.8833 -97.0500 294° West 180 207 1,400  Level Dallas / Fort Worth TRACON
02:27PM 32.8500 -97.0500 180° South 182 209 2,300 1,500 Climbing Dallas / Fort Worth TRACON
02:28PM 32.8000 -97.0667 196° South 235 270 3,700 1,620 Climbing Dallas / Fort Worth TRACON
02:29PM 32.8035 -97.3162 298° West  Level FlightAware Approximate
02:29PM 32.7667 -97.1333 239° Southwest 260 299 5,500  Level Dallas / Fort Worth TRACON
02:30PM 32.8557 -97.4391 296° West  Level FlightAware Approximate
02:30PM 32.7667 -97.2333 270° West 288 331 7,500  Level Dallas / Fort Worth TRACON
02:31PM 32.9047 -97.5639 292° West  Level FlightAware Approximate
02:31PM 32.8103 -97.3342 297° West 297 342 10,300  Level Fort Worth Center
02:32PM 32.9506 -97.6905 294° West  Level FlightAware Approximate
02:32PM 32.8522 -97.4356 296° West 303 349 12,100  Level Fort Worth Center
02:33PM 32.8897 -97.5272 296° West 327 376 14,100 1,980 Climbing Fort Worth Center
02:34PM 32.9397 -97.6336 299° West 356 410 16,100 1,980 Climbing Fort Worth Center
02:35PM 32.9853 -97.7625 293° West 372 428 18,100 1,860 Climbing Fort Worth Center
02:36PM 33.0017 -97.8792 280° West 389 448 19,900 2,040 Climbing Fort Worth Center
02:37PM 33.0258 -98.0303 281° West 417 480 22,200 1,980 Climbing Fort Worth Center
02:38PM 33.0442 -98.1519 280° West 423 487 23,900 1,620 Climbing Fort Worth Center
02:39PM 33.0681 -98.3058 281° West 429 494 25,500 1,440 Climbing Fort Worth Center
02:40PM 33.0881 -98.4325 281° West 429 494 26,800 1,200 Climbing Fort Worth Center
02:41PM 33.1161 -98.5692 284° West 429 494 28,000 1,140 Climbing Fort Worth Center
02:42PM 33.1711 -98.7039 296° West 441 507 29,100 1,200 Climbing Fort Worth Center
02:43PM 33.2261 -98.8414 296° West 441 507 30,500 1,380 Climbing Fort Worth Center
02:44PM 33.2808 -98.9739 296° West 441 507 31,900 1,320 Climbing Fort Worth Center
02:45PM 33.3356 -99.1042 297° West 446 513 33,200 1,200 Climbing Fort Worth Center
02:46PM 33.3878 -99.2369 295° West 446 513 34,300 1,020 Climbing Fort Worth Center
02:47PM 33.4400 -99.3675 296° West 446 513 35,300 840 Climbing Fort Worth Center
02:48PM 33.4944 -99.4983 297° West 446 513 36,000 300 Climbing Fort Worth Center
02:49PM 33.5483 -99.6317 296° West 446 513 36,000  Level Fort Worth Center
02:50PM 33.6025 -99.7628 296° West 446 513 36,000  Level Fort Worth Center
02:51PM 33.6542 -99.8964 295° West 446 513 36,000  Level Fort Worth Center
02:52PM 33.7075 -100.0328 295° West 446 513 36,000  Level Fort Worth Center
02:53PM 33.7611 -100.1692 295° West 446 513 36,000  Level Fort Worth Center
02:54PM 33.8122 -100.3033 295° West 446 513 36,000  Level Fort Worth Center
02:55PM 33.8678 -100.4328 297° West 446 513 36,000  Level Fort Worth Center
02:56PM 33.9164 -100.5719 293° West 446 513 36,000  Level Fort Worth Center
02:57PM 33.9714 -100.7044 297° West 446 513 36,000  Level Fort Worth Center
02:58PM 34.0219 -100.8389 294° West 446 513 36,000  Level Fort Worth Center
02:59PM 34.0747 -100.9714 296° West 436 502 36,000  Level Fort Worth Center
03:00PM 34.1350 -101.1244 295° West 453 521 36,000  Level Fort Worth Center
03:01PM 34.1811 -101.2494 294° West 451 519 36,000  Level Fort Worth Center
03:02PM 34.2372 -101.3978 295° West 445 512 36,000  Level Fort Worth Center
03:03PM 34.2833 -101.5181 295° West 445 512 36,000  Level Fort Worth Center
03:04PM 34.3389 -101.6639 295° West 445 512 36,000  Level Fort Worth Center
03:06PM 34.3947 -101.8142 294° West 444 511 36,000  Level Albuquerque Center
03:07PM 34.4456 -101.9506 294° West 443 510 36,000  Level Albuquerque Center
03:08PM 34.4950 -102.0856 294° West 439 505 36,000  Level Albuquerque Center
03:09PM 34.5458 -102.2206 295° West 438 504 36,000  Level Albuquerque Center
03:10PM 34.6061 -102.3836 294° West 440 506 36,000  Level Albuquerque Center
03:11PM 34.6547 -102.5192 294° West 438 504 36,000  Level Albuquerque Center
03:12PM 34.7058 -102.6542 295° West 438 504 36,000  Level Albuquerque Center
03:13PM 34.7533 -102.7831 294° West 441 507 36,000  Level Albuquerque Center
03:14PM 34.8114 -102.9425 294° West 438 504 36,000  Level Albuquerque Center
03:15PM 34.8594 -103.0797 293° West 437 503 36,000  Level Albuquerque Center
03:16PM 34.9100 -103.2147 295° West 436 502 36,000  Level Albuquerque Center
03:17PM 34.9594 -103.3511 294° West 436 502 36,000  Level Albuquerque Center
03:18PM 35.0083 -103.4869 294° West 434 499 36,000  Level Albuquerque Center
03:19PM 35.0567 -103.6231 293° West 434 499 36,000  Level Albuquerque Center
03:20PM 35.1050 -103.7594 293° West 434 499 36,000  Level Albuquerque Center
03:21PM 35.1533 -103.8969 293° West 436 502 36,000  Level Albuquerque Center
03:22PM 35.2031 -104.0381 293° West 441 507 36,000  Level Albuquerque Center
03:23PM 35.2503 -104.1739 293° West 437 503 36,000  Level Albuquerque Center
03:24PM 35.3067 -104.3367 293° West 435 501 36,000  Level Albuquerque Center
03:25PM 35.3492 -104.4614 293° West 435 501 36,000  Level Albuquerque Center
03:26PM 35.3969 -104.6006 293° West 439 505 36,000  Level Albuquerque Center
03:27PM 35.4522 -104.7603 293° West 435 501 36,000  Level Albuquerque Center
03:28PM 35.4989 -104.8997 292° West 438 504 36,000  Level Albuquerque Center
03:29PM 35.5461 -105.0381 293° West 436 502 36,000  Level Albuquerque Center
03:30PM 35.5922 -105.1764 292° West 434 499 36,000  Level Albuquerque Center
03:31PM 35.6389 -105.3150 293° West 436 502 36,000  Level Albuquerque Center
03:32PM 35.6858 -105.4531 293° West 435 501 36,000  Level Albuquerque Center
03:33PM 35.7322 -105.5886 293° West 432 497 36,000  Level Albuquerque Center
03:34PM 35.7775 -105.7256 292° West 433 498 36,000  Level Albuquerque Center
03:35PM 35.8242 -105.8622 293° West 434 499 36,000  Level Albuquerque Center
03:36PM 35.8769 -106.0269 292° West 434 499 36,000  Level Albuquerque Center
03:37PM 35.9225 -106.1631 292° West 432 497 36,000  Level Albuquerque Center
03:39PM 35.9686 -106.3033 292° West 439 505 36,000  Level Albuquerque Center
03:40PM 36.0144 -106.4422 292° West 440 506 36,000  Level Albuquerque Center
03:41PM 36.0581 -106.5822 291° West 439 505 36,000  Level Albuquerque Center
03:42PM 36.1033 -106.7206 292° West 438 504 36,000  Level Albuquerque Center
03:43PM 36.1481 -106.8603 292° West 438 504 36,000  Level Albuquerque Center
03:44PM 36.1983 -107.0158 292° West 439 505 36,000  Level Albuquerque Center
03:45PM 36.2461 -107.1711 291° West 435 501 36,000  Level Albuquerque Center
03:46PM 36.2889 -107.3044 292° West 435 501 36,000  Level Albuquerque Center
03:47PM 36.3381 -107.4600 291° West 434 499 36,000  Level Albuquerque Center
03:48PM 36.3781 -107.5919 291° West 430 495 36,000  Level Albuquerque Center
03:49PM 36.4194 -107.7236 291° West 429 494 36,000  Level Albuquerque Center
03:50PM 36.4656 -107.8767 291° West 429 494 36,000  Level Denver Center
03:51PM 36.5147 -108.0325 291° West 435 501 36,000  Level Denver Center
03:52PM 36.5550 -108.1664 291° West 435 501 36,000  Level Denver Center
03:53PM 36.6022 -108.3247 290° West 437 503 36,000  Level Denver Center
03:54PM 36.6442 -108.4614 291° West 443 510 36,000  Level Denver Center
03:55PM 36.6933 -108.6206 291° West 443 510 36,000  Level Denver Center
03:56PM 36.7339 -108.7558 291° West 439 505 36,000  Level Denver Center
03:57PM 36.7794 -108.9108 290° West 433 498 36,000  Level Denver Center
03:58PM 36.8194 -109.0447 291° West 432 497 36,000  Level Denver Center
03:59PM 36.8661 -109.2011 290° West 432 497 36,000  Level Denver Center
04:00PM 36.9044 -109.3369 289° West 433 498 36,000  Level Denver Center
04:01PM 36.9494 -109.4942 290° West 432 497 36,000  Level Denver Center
04:02PM 36.9886 -109.6300 290° West 434 499 36,000  Level Denver Center
04:03PM 37.0286 -109.7889 288° West 431 496 36,000  Level Denver Center
04:04PM 37.0425 -109.9314 277° West 427 491 36,000  Level Denver Center
04:05PM 37.0589 -110.0719 278° West 431 496 36,000  Level Denver Center
04:06PM 37.0753 -110.2331 277° West 432 497 36,000  Level Denver Center
04:07PM 37.0906 -110.3803 277° West 428 493 36,000  Level Denver Center
04:08PM 37.1050 -110.5278 277° West 427 491 36,000  Level Denver Center
04:09PM 37.1242 -110.7042 278° West 426 490 36,000  Level Denver Center
04:11PM 37.1408 -110.8511 278° West 427 491 36,000  Level Denver Center
04:12PM 37.1550 -110.9969 277° West 423 487 36,000  Level Denver Center
04:13PM 37.1725 -111.1411 279° West 420 483 36,000  Level Denver Center
04:14PM 37.1875 -111.2861 277° West 419 482 36,000  Level Denver Center
04:15PM 37.2036 -111.4303 278° West 418 481 36,000  Level Denver Center
04:16PM 37.2219 -111.6022 278° West 415 478 36,000 420 Level Denver Center
04:17PM 37.2414 -111.7444 280° West 414 476 36,900 780 Climbing Denver Center
04:18PM 37.2722 -111.8850 285° West 416 479 37,700 660 Climbing Denver Center
04:18PM 37.2858 -111.9706 281° West 419 482 38,000 180 Climbing Los Angeles Center
04:19PM 37.3147 -112.1153 284° West 426 490 38,000  Level Los Angeles Center
04:20PM 37.3486 -112.2561 287° West 422 486 38,000  Level Los Angeles Center
04:21PM 37.3806 -112.3672 290° West 421 484 38,000  Level Salt Lake Center
04:22PM 37.4356 -112.5322 293° West 425 489 38,000  Level Salt Lake Center
04:23PM 37.4817 -112.6681 293° West 423 487 38,000  Level Salt Lake Center
04:24PM 37.5258 -112.8042 292° West 419 482 38,000  Level Salt Lake Center
04:25PM 37.5789 -112.9600 293° West 466 536 38,000  Level Salt Lake Center
04:26PM 37.6267 -113.0928 294° West 427 491 38,000  Level Salt Lake Center
04:28PM 37.6747 -113.2286 294° West 424 488 38,000  Level Salt Lake Center
04:29PM 37.7236 -113.3658 294° West 428 493 38,000  Level Salt Lake Center
04:30PM 37.7742 -113.5025 295° West 430 495 38,000  Level Salt Lake Center
04:31PM 37.7981 -113.6478 282° West 427 491 38,000  Level Los Angeles Center
04:32PM 37.8081 -113.8253 274° West 423 487 38,000  Level Los Angeles Center
04:33PM 37.8186 -113.9725 275° West 423 487 38,000  Level Los Angeles Center
04:34PM 37.8278 -114.1189 275° West 420 483 38,000  Level Los Angeles Center
04:35PM 37.8383 -114.2942 274° West 419 482 38,000  Level Los Angeles Center
04:36PM 37.8472 -114.4386 275° West 414 476 38,000  Level Los Angeles Center
04:37PM 37.8581 -114.6133 275° West 416 479 38,000  Level Los Angeles Center
04:38PM 37.8675 -114.7886 274° West 417 480 38,000  Level Los Angeles Center
04:39PM 37.8772 -114.9500 274° West 424 488 38,000  Level Los Angeles Center
04:40PM 37.8797 -115.0089 273° West 422 486 38,000  Level Salt Lake Center
04:41PM 37.8897 -115.1853 274° West 421 484 38,000  Level Salt Lake Center
04:42PM 37.8969 -115.3319 274° West 417 480 38,000  Level Salt Lake Center
04:43PM 37.9056 -115.4806 274° West 423 487 38,000  Level Salt Lake Center
04:44PM 37.9125 -115.6294 273° West 426 490 38,000  Level Salt Lake Center
04:45PM 37.9172 -115.7194 274° West 426 490 38,000  Level Salt Lake Center
04:46PM 37.9244 -115.8686 274° West 426 490 38,000  Level Salt Lake Center
04:47PM 37.9317 -116.0175 274° West 424 488 38,000  Level Salt Lake Center
04:48PM 37.9408 -116.1975 274° West 428 493 38,000  Level Salt Lake Center
04:49PM 37.9472 -116.3475 273° West 426 490 38,000  Level Salt Lake Center
04:50PM 37.9531 -116.4994 273° West 431 496 38,000  Level Salt Lake Center
04:51PM 37.9603 -116.6478 274° West 425 489 38,000  Level Salt Lake Center
04:52PM 37.9664 -116.7986 273° West 426 490 38,000  Level Salt Lake Center
04:53PM 37.9725 -116.9481 273° West 424 488 38,000  Level Oakland Center
04:54PM 37.9778 -117.0986 273° West 422 486 38,000  Level Oakland Center
04:55PM 37.9833 -117.2514 273° West 424 488 38,000  Level Oakland Center
04:56PM 37.9897 -117.4028 273° West 424 488 38,000  Level Oakland Center
04:57PM 37.9953 -117.5522 273° West 422 486 38,000  Level Oakland Center
04:58PM 38.0006 -117.7000 273° West 419 482 38,000  Level Oakland Center
04:59PM 37.9919 -117.8742 266° West 417 480 38,000  Level Oakland Center
05:00PM 37.9767 -118.0192 262° West 414 476 38,000  Level Oakland Center
05:01PM 37.9608 -118.1650 262° West 417 480 38,000  Level Oakland Center
05:02PM 37.9458 -118.3125 263° West 423 487 38,000  Level Oakland Center
05:03PM 37.9289 -118.4589 262° West 421 484 38,000  Level Oakland Center
05:04PM 37.9125 -118.6036 262° West 417 480 38,000  Level Oakland Center
05:05PM 37.8967 -118.7494 262° West 418 481 38,000  Level Oakland Center
05:06PM 37.8806 -118.8936 262° West 416 479 38,000  Level Oakland Center
05:07PM 37.8608 -119.0667 262° West 415 478 38,000  Level Oakland Center
05:08PM 37.8433 -119.2111 261° West 417 480 38,000  Level Oakland Center
05:09PM 37.8267 -119.3578 262° West 420 483 38,000  Level Oakland Center
05:10PM 37.8100 -119.5036 262° West 418 481 38,000  Level Oakland Center
05:11PM 37.7917 -119.6514 261° West 424 488 38,000  Level Oakland Center
05:12PM 37.7733 -119.8000 261° West 426 490 38,000 -420 Level Oakland Center
05:13PM 37.7564 -119.9461 262° West 423 487 37,200 -1,500 Descending Oakland Center
05:14PM 37.7378 -120.0919 261° West 418 481 35,000 -2,820 Descending Oakland Center
05:15PM 37.7161 -120.2675 261° West 422 486 31,400 -2,880 Descending Oakland Center
05:16PM 37.6981 -120.4133 261° West 421 484 29,100 -2,220 Descending Oakland Center
05:18PM 37.6803 -120.5517 261° West 403 464 26,900 -1,740 Descending Oakland Center
05:19PM 37.6619 -120.6886 260° West 395 455 25,600 -1,200 Descending Oakland Center
05:20PM 37.6458 -120.8156 261° West 371 427 24,500 -1,560 Descending Oakland Center
05:21PM 37.6286 -120.9378 260° West 359 413 22,500 -2,040 Descending Oakland Center
05:22PM 37.6153 -121.0556 262° West 345 397 20,300 -2,040 Descending Oakland Center
05:23PM 37.6008 -121.1892 262° West 339 390 18,300 -1,980 Descending Oakland Center
05:24PM 37.5875 -121.2997 261° West 326 375 16,300 -1,920 Descending Oakland Center
05:25PM 37.5689 -121.4075 258° West 317 365 14,400 -1,860 Descending Oakland Center
05:26PM 37.5500 -121.5128 257° West 310 357 12,600 -1,680 Descending Oakland Center
05:27PM 37.5297 -121.6131 256° West 298 343 11,000 -1,380 Descending Oakland Center
05:28PM 37.5125 -121.7103 257° West 290 334 9,800 -1,260 Descending Oakland Center
05:29PM 37.4833 -121.8333 253° West 271 312 8,300 -840 Descending Northern Cal TRACON
05:30PM 37.4833 -121.9167 270° West 257 296 8,100 -660 Descending Northern Cal TRACON
05:31PM 37.5000 -122.0000 284° West 251 289 7,000 -1,260 Descending Northern Cal TRACON
05:32PM 37.5333 -122.0833 297° West 237 273 5,600 -1,440 Descending Northern Cal TRACON